sensor_id;sensor_type;location;lat;lon;timestamp;P1;durP1;ratioP1;P2;durP2;ratioP2
62543;SDS011;48597;49.030;1.822;2022-10-16T00:00:34;2.03;;;1.10;;
62543;SDS011;48597;49.030;1.822;2022-10-16T00:03:01;1.10;;;1.00;;
62543;SDS011;48597;49.030;1.822;2022-10-16T00:05:27;1.30;;;1.20;;
62543;SDS011;48597;49.030;1.822;2022-10-16T00:07:53;1.75;;;1.17;;
62543;SDS011;48597;49.030;1.822;2022-10-16T00:10:18;1.55;;;1.20;;
62543;SDS011;48597;49.030;1.822;2022-10-16T00:12:43;1.17;;;1.08;;
62543;SDS011;48597;49.030;1.822;2022-10-16T00:15:09;1.45;;;1.15;;
62543;SDS011;48597;49.030;1.822;2022-10-16T00:17:34;1.25;;;0.90;;
62543;SDS011;48597;49.030;1.822;2022-10-16T00:20:00;1.20;;;1.10;;
62543;SDS011;48597;49.030;1.822;2022-10-16T00:22:25;1.75;;;1.10;;
62543;SDS011;48597;49.030;1.822;2022-10-16T00:24:51;1.30;;;1.20;;
62543;SDS011;48597;49.030;1.822;2022-10-16T00:27:16;1.40;;;1.20;;
62543;SDS011;48597;49.030;1.822;2022-10-16T00:29:42;1.40;;;1.10;;
62543;SDS011;48597;49.030;1.822;2022-10-16T00:32:08;1.63;;;1.10;;
62543;SDS011;48597;49.030;1.822;2022-10-16T00:34:33;1.23;;;1.08;;
62543;SDS011;48597;49.030;1.822;2022-10-16T00:36:59;1.30;;;1.20;;
62543;SDS011;48597;49.030;1.822;2022-10-16T00:39:24;1.50;;;1.30;;
62543;SDS011;48597;49.030;1.822;2022-10-16T00:41:50;1.33;;;0.90;;
62543;SDS011;48597;49.030;1.822;2022-10-16T00:47:08;1.45;;;1.10;;
62543;SDS011;48597;49.030;1.822;2022-10-16T00:49:35;1.70;;;1.15;;
62543;SDS011;48597;49.030;1.822;2022-10-16T00:52:01;1.42;;;1.20;;
62543;SDS011;48597;49.030;1.822;2022-10-16T00:54:28;1.42;;;1.10;;
62543;SDS011;48597;49.030;1.822;2022-10-16T00:56:56;1.10;;;1.00;;
62543;SDS011;48597;49.030;1.822;2022-10-16T00:59:29;1.17;;;0.90;;
62543;SDS011;48597;49.030;1.822;2022-10-16T01:01:57;1.40;;;1.10;;
62543;SDS011;48597;49.030;1.822;2022-10-16T01:04:23;1.15;;;1.05;;
62543;SDS011;48597;49.030;1.822;2022-10-16T01:07:09;1.35;;;1.20;;
62543;SDS011;48597;49.030;1.822;2022-10-16T01:12:21;1.02;;;0.95;;
62543;SDS011;48597;49.030;1.822;2022-10-16T01:14:57;1.17;;;1.08;;
62543;SDS011;48597;49.030;1.822;2022-10-16T01:17:31;1.20;;;1.10;;
62543;SDS011;48597;49.030;1.822;2022-10-16T01:28:07;0.95;;;0.88;;
62543;SDS011;48597;49.030;1.822;2022-10-16T01:30:38;1.20;;;1.10;;
62543;SDS011;48597;49.030;1.822;2022-10-16T01:35:45;1.83;;;1.00;;
62543;SDS011;48597;49.030;1.822;2022-10-16T01:40:51;1.30;;;0.85;;
62543;SDS011;48597;49.030;1.822;2022-10-16T01:43:22;1.27;;;1.02;;
62543;SDS011;48597;49.030;1.822;2022-10-16T01:45:53;1.10;;;1.00;;
62543;SDS011;48597;49.030;1.822;2022-10-16T01:48:20;1.52;;;0.82;;
62543;SDS011;48597;49.030;1.822;2022-10-16T01:50:56;0.85;;;0.80;;
62543;SDS011;48597;49.030;1.822;2022-10-16T01:53:27;1.02;;;0.93;;
62543;SDS011;48597;49.030;1.822;2022-10-16T01:55:54;1.60;;;0.95;;
62543;SDS011;48597;49.030;1.822;2022-10-16T01:58:20;1.25;;;1.00;;
62543;SDS011;48597;49.030;1.822;2022-10-16T02:00:48;1.13;;;1.02;;
62543;SDS011;48597;49.030;1.822;2022-10-16T02:03:15;1.00;;;0.88;;
62543;SDS011;48597;49.030;1.822;2022-10-16T02:08:11;1.10;;;0.80;;
62543;SDS011;48597;49.030;1.822;2022-10-16T02:10:39;0.93;;;0.82;;
62543;SDS011;48597;49.030;1.822;2022-10-16T02:13:12;0.82;;;0.82;;
62543;SDS011;48597;49.030;1.822;2022-10-16T02:15:40;0.85;;;0.82;;
62543;SDS011;48597;49.030;1.822;2022-10-16T02:18:06;1.02;;;1.00;;
62543;SDS011;48597;49.030;1.822;2022-10-16T02:20:37;1.00;;;0.90;;
62543;SDS011;48597;49.030;1.822;2022-10-16T02:23:10;1.08;;;0.90;;
62543;SDS011;48597;49.030;1.822;2022-10-16T02:25:41;0.80;;;0.80;;
62543;SDS011;48597;49.030;1.822;2022-10-16T02:28:17;0.90;;;0.90;;
62543;SDS011;48597;49.030;1.822;2022-10-16T02:30:57;0.98;;;0.85;;
62543;SDS011;48597;49.030;1.822;2022-10-16T02:33:24;1.02;;;0.90;;
62543;SDS011;48597;49.030;1.822;2022-10-16T02:35:52;0.75;;;0.75;;
62543;SDS011;48597;49.030;1.822;2022-10-16T02:38:19;1.38;;;0.95;;
62543;SDS011;48597;49.030;1.822;2022-10-16T02:40:46;1.02;;;0.80;;
62543;SDS011;48597;49.030;1.822;2022-10-16T02:43:12;1.00;;;0.70;;
62543;SDS011;48597;49.030;1.822;2022-10-16T02:45:37;0.80;;;0.80;;
62543;SDS011;48597;49.030;1.822;2022-10-16T02:48:03;0.90;;;0.90;;
62543;SDS011;48597;49.030;1.822;2022-10-16T02:50:29;0.88;;;0.80;;
62543;SDS011;48597;49.030;1.822;2022-10-16T02:52:54;0.93;;;0.90;;
62543;SDS011;48597;49.030;1.822;2022-10-16T02:55:19;1.10;;;1.00;;
62543;SDS011;48597;49.030;1.822;2022-10-16T02:57:45;0.80;;;0.80;;
62543;SDS011;48597;49.030;1.822;2022-10-16T03:00:11;0.70;;;0.70;;
62543;SDS011;48597;49.030;1.822;2022-10-16T03:02:39;1.10;;;1.00;;
62543;SDS011;48597;49.030;1.822;2022-10-16T03:05:05;0.80;;;0.70;;
62543;SDS011;48597;49.030;1.822;2022-10-16T03:07:33;0.70;;;0.70;;
62543;SDS011;48597;49.030;1.822;2022-10-16T03:09:58;1.20;;;0.70;;
62543;SDS011;48597;49.030;1.822;2022-10-16T03:12:25;0.93;;;0.80;;
62543;SDS011;48597;49.030;1.822;2022-10-16T03:14:51;0.70;;;0.70;;
62543;SDS011;48597;49.030;1.822;2022-10-16T03:17:17;1.02;;;0.80;;
62543;SDS011;48597;49.030;1.822;2022-10-16T03:19:42;0.70;;;0.70;;
62543;SDS011;48597;49.030;1.822;2022-10-16T03:22:08;0.95;;;0.70;;
62543;SDS011;48597;49.030;1.822;2022-10-16T03:24:33;1.13;;;0.90;;
62543;SDS011;48597;49.030;1.822;2022-10-16T03:26:59;0.95;;;0.88;;
62543;SDS011;48597;49.030;1.822;2022-10-16T03:29:24;0.77;;;0.77;;
62543;SDS011;48597;49.030;1.822;2022-10-16T03:31:50;0.80;;;0.80;;
62543;SDS011;48597;49.030;1.822;2022-10-16T03:34:16;0.80;;;0.80;;
62543;SDS011;48597;49.030;1.822;2022-10-16T03:36:43;0.90;;;0.80;;
62543;SDS011;48597;49.030;1.822;2022-10-16T03:39:08;1.45;;;0.80;;
62543;SDS011;48597;49.030;1.822;2022-10-16T03:41:34;1.05;;;0.80;;
62543;SDS011;48597;49.030;1.822;2022-10-16T03:43:59;0.70;;;0.70;;
62543;SDS011;48597;49.030;1.822;2022-10-16T03:46:24;0.77;;;0.77;;
62543;SDS011;48597;49.030;1.822;2022-10-16T03:48:50;0.70;;;0.70;;
62543;SDS011;48597;49.030;1.822;2022-10-16T03:51:15;0.80;;;0.80;;
62543;SDS011;48597;49.030;1.822;2022-10-16T03:53:41;0.77;;;0.77;;
62543;SDS011;48597;49.030;1.822;2022-10-16T03:56:07;0.70;;;0.70;;
62543;SDS011;48597;49.030;1.822;2022-10-16T03:58:33;0.80;;;0.80;;
62543;SDS011;48597;49.030;1.822;2022-10-16T04:00:58;0.70;;;0.70;;
62543;SDS011;48597;49.030;1.822;2022-10-16T04:03:23;0.70;;;0.70;;
62543;SDS011;48597;49.030;1.822;2022-10-16T04:05:49;0.60;;;0.60;;
62543;SDS011;48597;49.030;1.822;2022-10-16T04:08:14;0.80;;;0.80;;
62543;SDS011;48597;49.030;1.822;2022-10-16T04:10:42;0.70;;;0.70;;
62543;SDS011;48597;49.030;1.822;2022-10-16T04:13:08;1.02;;;0.73;;
62543;SDS011;48597;49.030;1.822;2022-10-16T04:15:33;0.75;;;0.75;;
62543;SDS011;48597;49.030;1.822;2022-10-16T04:17:59;0.73;;;0.70;;
62543;SDS011;48597;49.030;1.822;2022-10-16T04:20:24;0.77;;;0.77;;
62543;SDS011;48597;49.030;1.822;2022-10-16T04:22:50;1.20;;;0.80;;
62543;SDS011;48597;49.030;1.822;2022-10-16T04:25:15;0.73;;;0.73;;
62543;SDS011;48597;49.030;1.822;2022-10-16T04:27:40;0.90;;;0.80;;
62543;SDS011;48597;49.030;1.822;2022-10-16T04:30:06;0.70;;;0.70;;
62543;SDS011;48597;49.030;1.822;2022-10-16T04:32:33;0.93;;;0.80;;
62543;SDS011;48597;49.030;1.822;2022-10-16T04:34:58;0.70;;;0.70;;
62543;SDS011;48597;49.030;1.822;2022-10-16T04:37:27;0.70;;;0.70;;
62543;SDS011;48597;49.030;1.822;2022-10-16T04:39:52;1.00;;;0.80;;
62543;SDS011;48597;49.030;1.822;2022-10-16T04:42:18;0.73;;;0.70;;
62543;SDS011;48597;49.030;1.822;2022-10-16T04:44:44;0.85;;;0.70;;
62543;SDS011;48597;49.030;1.822;2022-10-16T04:47:10;1.38;;;0.82;;
62543;SDS011;48597;49.030;1.822;2022-10-16T04:49:35;0.63;;;0.63;;
62543;SDS011;48597;49.030;1.822;2022-10-16T04:52:00;0.77;;;0.70;;
62543;SDS011;48597;49.030;1.822;2022-10-16T04:54:26;0.70;;;0.70;;
62543;SDS011;48597;49.030;1.822;2022-10-16T04:56:51;0.90;;;0.80;;
62543;SDS011;48597;49.030;1.822;2022-10-16T04:59:20;0.63;;;0.63;;
62543;SDS011;48597;49.030;1.822;2022-10-16T05:01:45;0.88;;;0.70;;
62543;SDS011;48597;49.030;1.822;2022-10-16T05:04:11;0.82;;;0.80;;
62543;SDS011;48597;49.030;1.822;2022-10-16T05:06:37;0.80;;;0.80;;
62543;SDS011;48597;49.030;1.822;2022-10-16T05:09:04;0.77;;;0.70;;
62543;SDS011;48597;49.030;1.822;2022-10-16T05:11:30;0.80;;;0.80;;
62543;SDS011;48597;49.030;1.822;2022-10-16T05:13:55;0.77;;;0.70;;
62543;SDS011;48597;49.030;1.822;2022-10-16T05:16:21;0.60;;;0.60;;
62543;SDS011;48597;49.030;1.822;2022-10-16T05:18:48;0.77;;;0.75;;
62543;SDS011;48597;49.030;1.822;2022-10-16T05:21:13;0.70;;;0.70;;
62543;SDS011;48597;49.030;1.822;2022-10-16T05:23:39;1.02;;;0.82;;
62543;SDS011;48597;49.030;1.822;2022-10-16T05:26:04;0.75;;;0.70;;
62543;SDS011;48597;49.030;1.822;2022-10-16T05:28:30;0.90;;;0.70;;
62543;SDS011;48597;49.030;1.822;2022-10-16T05:30:56;0.70;;;0.70;;
62543;SDS011;48597;49.030;1.822;2022-10-16T05:33:23;0.68;;;0.60;;
62543;SDS011;48597;49.030;1.822;2022-10-16T05:35:49;1.30;;;0.60;;
62543;SDS011;48597;49.030;1.822;2022-10-16T05:38:16;2.53;;;0.82;;
62543;SDS011;48597;49.030;1.822;2022-10-16T05:40:41;0.80;;;0.80;;
62543;SDS011;48597;49.030;1.822;2022-10-16T05:43:07;0.70;;;0.70;;
62543;SDS011;48597;49.030;1.822;2022-10-16T05:45:32;0.95;;;0.90;;
62543;SDS011;48597;49.030;1.822;2022-10-16T05:47:59;0.68;;;0.68;;
62543;SDS011;48597;49.030;1.822;2022-10-16T05:50:25;0.80;;;0.80;;
62543;SDS011;48597;49.030;1.822;2022-10-16T05:52:50;0.77;;;0.77;;
62543;SDS011;48597;49.030;1.822;2022-10-16T05:55:15;1.02;;;0.80;;
62543;SDS011;48597;49.030;1.822;2022-10-16T05:57:41;0.77;;;0.77;;
62543;SDS011;48597;49.030;1.822;2022-10-16T06:00:06;0.63;;;0.60;;
62543;SDS011;48597;49.030;1.822;2022-10-16T06:02:32;0.80;;;0.80;;
62543;SDS011;48597;49.030;1.822;2022-10-16T06:04:57;0.70;;;0.70;;
62543;SDS011;48597;49.030;1.822;2022-10-16T06:07:23;0.73;;;0.73;;
62543;SDS011;48597;49.030;1.822;2022-10-16T06:09:52;0.93;;;0.88;;
62543;SDS011;48597;49.030;1.822;2022-10-16T06:12:18;0.70;;;0.70;;
62543;SDS011;48597;49.030;1.822;2022-10-16T06:14:45;0.98;;;0.90;;
62543;SDS011;48597;49.030;1.822;2022-10-16T06:17:14;0.80;;;0.70;;
62543;SDS011;48597;49.030;1.822;2022-10-16T06:19:40;0.70;;;0.70;;
62543;SDS011;48597;49.030;1.822;2022-10-16T06:22:06;0.80;;;0.80;;
62543;SDS011;48597;49.030;1.822;2022-10-16T06:24:31;0.93;;;0.77;;
62543;SDS011;48597;49.030;1.822;2022-10-16T06:26:57;0.80;;;0.80;;
62543;SDS011;48597;49.030;1.822;2022-10-16T06:29:22;0.73;;;0.70;;
62543;SDS011;48597;49.030;1.822;2022-10-16T06:31:47;0.80;;;0.80;;
62543;SDS011;48597;49.030;1.822;2022-10-16T06:34:13;0.90;;;0.70;;
62543;SDS011;48597;49.030;1.822;2022-10-16T06:36:38;0.80;;;0.70;;
62543;SDS011;48597;49.030;1.822;2022-10-16T06:39:05;1.10;;;0.90;;
62543;SDS011;48597;49.030;1.822;2022-10-16T06:41:32;0.80;;;0.80;;
62543;SDS011;48597;49.030;1.822;2022-10-16T06:43:58;1.42;;;0.80;;
62543;SDS011;48597;49.030;1.822;2022-10-16T06:46:26;1.90;;;0.85;;
62543;SDS011;48597;49.030;1.822;2022-10-16T06:48:55;1.60;;;0.90;;
62543;SDS011;48597;49.030;1.822;2022-10-16T06:51:21;2.13;;;0.80;;
62543;SDS011;48597;49.030;1.822;2022-10-16T06:53:49;1.50;;;1.00;;
62543;SDS011;48597;49.030;1.822;2022-10-16T06:56:19;1.58;;;0.85;;
62543;SDS011;48597;49.030;1.822;2022-10-16T06:58:45;1.92;;;0.90;;
62543;SDS011;48597;49.030;1.822;2022-10-16T07:01:12;1.88;;;1.00;;
62543;SDS011;48597;49.030;1.822;2022-10-16T07:03:42;1.83;;;0.80;;
62543;SDS011;48597;49.030;1.822;2022-10-16T07:06:09;2.05;;;0.80;;
62543;SDS011;48597;49.030;1.822;2022-10-16T07:08:37;1.15;;;0.90;;
62543;SDS011;48597;49.030;1.822;2022-10-16T07:11:04;1.00;;;0.80;;
62543;SDS011;48597;49.030;1.822;2022-10-16T07:13:36;1.52;;;0.88;;
62543;SDS011;48597;49.030;1.822;2022-10-16T07:16:06;3.33;;;1.10;;
62543;SDS011;48597;49.030;1.822;2022-10-16T07:18:34;1.33;;;0.90;;
62543;SDS011;48597;49.030;1.822;2022-10-16T07:21:03;1.52;;;0.80;;
62543;SDS011;48597;49.030;1.822;2022-10-16T07:23:30;3.95;;;0.90;;
62543;SDS011;48597;49.030;1.822;2022-10-16T07:25:55;1.92;;;0.90;;
62543;SDS011;48597;49.030;1.822;2022-10-16T07:28:21;2.95;;;1.30;;
62543;SDS011;48597;49.030;1.822;2022-10-16T07:30:47;3.97;;;1.20;;
62543;SDS011;48597;49.030;1.822;2022-10-16T07:33:12;2.45;;;1.02;;
62543;SDS011;48597;49.030;1.822;2022-10-16T07:35:38;1.02;;;0.82;;
62543;SDS011;48597;49.030;1.822;2022-10-16T07:38:11;1.90;;;1.15;;
62543;SDS011;48597;49.030;1.822;2022-10-16T07:40:37;1.33;;;0.93;;
62543;SDS011;48597;49.030;1.822;2022-10-16T07:43:02;12.30;;;1.42;;
62543;SDS011;48597;49.030;1.822;2022-10-16T07:45:30;11.35;;;1.60;;
62543;SDS011;48597;49.030;1.822;2022-10-16T07:47:55;7.93;;;1.50;;
62543;SDS011;48597;49.030;1.822;2022-10-16T07:50:22;5.43;;;1.40;;
62543;SDS011;48597;49.030;1.822;2022-10-16T07:52:47;6.10;;;1.58;;
62543;SDS011;48597;49.030;1.822;2022-10-16T07:55:12;8.35;;;1.45;;
62543;SDS011;48597;49.030;1.822;2022-10-16T07:57:38;6.70;;;1.70;;
62543;SDS011;48597;49.030;1.822;2022-10-16T08:00:03;9.13;;;1.90;;
62543;SDS011;48597;49.030;1.822;2022-10-16T08:02:29;8.02;;;1.60;;
62543;SDS011;48597;49.030;1.822;2022-10-16T08:04:56;7.95;;;1.65;;
62543;SDS011;48597;49.030;1.822;2022-10-16T08:07:21;5.60;;;1.08;;
62543;SDS011;48597;49.030;1.822;2022-10-16T08:09:48;5.32;;;1.58;;
62543;SDS011;48597;49.030;1.822;2022-10-16T08:12:15;3.72;;;1.50;;
62543;SDS011;48597;49.030;1.822;2022-10-16T08:14:40;4.57;;;1.50;;
62543;SDS011;48597;49.030;1.822;2022-10-16T08:17:05;6.55;;;1.40;;
62543;SDS011;48597;49.030;1.822;2022-10-16T08:19:31;4.28;;;1.13;;
62543;SDS011;48597;49.030;1.822;2022-10-16T08:21:59;3.83;;;1.48;;
62543;SDS011;48597;49.030;1.822;2022-10-16T08:24:24;5.43;;;1.38;;
62543;SDS011;48597;49.030;1.822;2022-10-16T08:26:49;5.40;;;1.33;;
62543;SDS011;48597;49.030;1.822;2022-10-16T08:29:15;6.55;;;1.48;;
62543;SDS011;48597;49.030;1.822;2022-10-16T08:31:40;3.22;;;1.30;;
62543;SDS011;48597;49.030;1.822;2022-10-16T08:34:06;2.88;;;1.20;;
62543;SDS011;48597;49.030;1.822;2022-10-16T08:36:31;3.60;;;1.33;;
62543;SDS011;48597;49.030;1.822;2022-10-16T08:38:57;6.07;;;1.70;;
62543;SDS011;48597;49.030;1.822;2022-10-16T08:41:24;3.17;;;1.20;;
62543;SDS011;48597;49.030;1.822;2022-10-16T08:49:38;2.95;;;1.13;;
62543;SDS011;48597;49.030;1.822;2022-10-16T08:52:10;4.55;;;1.20;;
62543;SDS011;48597;49.030;1.822;2022-10-16T08:54:41;2.90;;;1.15;;
62543;SDS011;48597;49.030;1.822;2022-10-16T08:57:20;4.38;;;1.10;;
62543;SDS011;48597;49.030;1.822;2022-10-16T08:59:46;5.47;;;1.35;;
62543;SDS011;48597;49.030;1.822;2022-10-16T09:02:26;2.80;;;1.15;;
62543;SDS011;48597;49.030;1.822;2022-10-16T09:07:49;3.00;;;1.00;;
62543;SDS011;48597;49.030;1.822;2022-10-16T09:13:17;2.10;;;1.15;;
62543;SDS011;48597;49.030;1.822;2022-10-16T09:23:39;2.63;;;1.25;;
62543;SDS011;48597;49.030;1.822;2022-10-16T09:26:05;1.73;;;1.20;;
62543;SDS011;48597;49.030;1.822;2022-10-16T09:28:34;2.45;;;1.25;;
62543;SDS011;48597;49.030;1.822;2022-10-16T09:31:00;1.83;;;1.13;;
62543;SDS011;48597;49.030;1.822;2022-10-16T09:33:28;1.50;;;1.00;;
62543;SDS011;48597;49.030;1.822;2022-10-16T09:35:57;2.17;;;1.30;;
62543;SDS011;48597;49.030;1.822;2022-10-16T09:38:33;2.38;;;1.30;;
62543;SDS011;48597;49.030;1.822;2022-10-16T09:41:17;3.00;;;1.40;;
62543;SDS011;48597;49.030;1.822;2022-10-16T09:43:57;1.63;;;1.20;;
62543;SDS011;48597;49.030;1.822;2022-10-16T09:48:59;2.65;;;1.65;;
62543;SDS011;48597;49.030;1.822;2022-10-16T09:53:55;2.67;;;1.58;;
62543;SDS011;48597;49.030;1.822;2022-10-16T09:56:47;1.83;;;1.40;;
62543;SDS011;48597;49.030;1.822;2022-10-16T10:01:48;2.53;;;1.65;;
62543;SDS011;48597;49.030;1.822;2022-10-16T10:04:20;2.05;;;1.40;;
62543;SDS011;48597;49.030;1.822;2022-10-16T10:06:48;2.78;;;1.40;;
62543;SDS011;48597;49.030;1.822;2022-10-16T10:11:52;1.42;;;1.20;;
62543;SDS011;48597;49.030;1.822;2022-10-16T10:14:26;2.13;;;1.35;;
62543;SDS011;48597;49.030;1.822;2022-10-16T10:17:17;1.67;;;1.40;;
62543;SDS011;48597;49.030;1.822;2022-10-16T10:22:16;1.67;;;1.42;;
62543;SDS011;48597;49.030;1.822;2022-10-16T10:28:17;2.88;;;1.50;;
62543;SDS011;48597;49.030;1.822;2022-10-16T10:30:37;2.30;;;1.25;;
62543;SDS011;48597;49.030;1.822;2022-10-16T10:36:10;1.27;;;1.15;;
62543;SDS011;48597;49.030;1.822;2022-10-16T10:38:48;3.22;;;1.20;;
62543;SDS011;48597;49.030;1.822;2022-10-16T10:44:20;1.85;;;1.20;;
62543;SDS011;48597;49.030;1.822;2022-10-16T10:52:43;1.60;;;1.10;;
62543;SDS011;48597;49.030;1.822;2022-10-16T10:58:16;2.80;;;1.30;;
62543;SDS011;48597;49.030;1.822;2022-10-16T11:01:10;1.75;;;1.40;;
62543;SDS011;48597;49.030;1.822;2022-10-16T11:09:44;2.55;;;1.20;;
62543;SDS011;48597;49.030;1.822;2022-10-16T11:12:20;2.65;;;1.17;;
62543;SDS011;48597;49.030;1.822;2022-10-16T11:20:45;2.50;;;1.10;;
62543;SDS011;48597;49.030;1.822;2022-10-16T11:23:17;1.42;;;1.10;;
62543;SDS011;48597;49.030;1.822;2022-10-16T11:25:50;1.10;;;1.00;;
62543;SDS011;48597;49.030;1.822;2022-10-16T11:33:38;2.88;;;1.15;;
62543;SDS011;48597;49.030;1.822;2022-10-16T11:36:16;2.03;;;1.30;;
62543;SDS011;48597;49.030;1.822;2022-10-16T11:38:52;1.60;;;1.20;;
62543;SDS011;48597;49.030;1.822;2022-10-16T11:41:29;0.98;;;0.93;;
62543;SDS011;48597;49.030;1.822;2022-10-16T11:47:37;1.75;;;1.02;;
62543;SDS011;48597;49.030;1.822;2022-10-16T11:53:13;2.13;;;1.20;;
62543;SDS011;48597;49.030;1.822;2022-10-16T11:55:39;1.27;;;0.98;;
62543;SDS011;48597;49.030;1.822;2022-10-16T12:00:41;1.70;;;1.10;;
62543;SDS011;48597;49.030;1.822;2022-10-16T12:06:04;1.33;;;1.00;;
62543;SDS011;48597;49.030;1.822;2022-10-16T12:08:37;1.38;;;1.10;;
62543;SDS011;48597;49.030;1.822;2022-10-16T12:11:24;1.20;;;1.00;;
62543;SDS011;48597;49.030;1.822;2022-10-16T12:14:04;1.20;;;1.10;;
62543;SDS011;48597;49.030;1.822;2022-10-16T12:16:33;3.07;;;1.00;;
62543;SDS011;48597;49.030;1.822;2022-10-16T12:19:14;1.88;;;1.10;;
62543;SDS011;48597;49.030;1.822;2022-10-16T12:21:43;1.25;;;0.93;;
62543;SDS011;48597;49.030;1.822;2022-10-16T12:24:26;2.45;;;1.13;;
62543;SDS011;48597;49.030;1.822;2022-10-16T12:26:55;1.65;;;1.10;;
62543;SDS011;48597;49.030;1.822;2022-10-16T12:29:30;2.33;;;1.20;;
62543;SDS011;48597;49.030;1.822;2022-10-16T12:35:06;3.28;;;1.10;;
62543;SDS011;48597;49.030;1.822;2022-10-16T12:41:03;1.20;;;1.10;;
62543;SDS011;48597;49.030;1.822;2022-10-16T12:43:36;1.92;;;1.00;;
62543;SDS011;48597;49.030;1.822;2022-10-16T12:48:36;0.95;;;0.88;;
62543;SDS011;48597;49.030;1.822;2022-10-16T12:56:50;3.10;;;1.00;;
62543;SDS011;48597;49.030;1.822;2022-10-16T12:59:35;1.25;;;1.02;;
62543;SDS011;48597;49.030;1.822;2022-10-16T13:16:13;2.70;;;1.10;;
62543;SDS011;48597;49.030;1.822;2022-10-16T13:18:52;4.50;;;1.30;;
62543;SDS011;48597;49.030;1.822;2022-10-16T13:27:15;1.83;;;1.10;;
62543;SDS011;48597;49.030;1.822;2022-10-16T13:29:52;3.20;;;1.02;;
62543;SDS011;48597;49.030;1.822;2022-10-16T13:32:20;2.40;;;0.90;;
62543;SDS011;48597;49.030;1.822;2022-10-16T13:34:47;1.58;;;1.10;;
62543;SDS011;48597;49.030;1.822;2022-10-16T13:37:17;1.42;;;0.98;;
62543;SDS011;48597;49.030;1.822;2022-10-16T13:39:44;1.45;;;0.90;;
62543;SDS011;48597;49.030;1.822;2022-10-16T13:42:14;1.42;;;0.90;;
62543;SDS011;48597;49.030;1.822;2022-10-16T13:44:47;3.13;;;1.20;;
62543;SDS011;48597;49.030;1.822;2022-10-16T13:47:16;1.70;;;0.98;;
62543;SDS011;48597;49.030;1.822;2022-10-16T13:49:43;1.83;;;0.80;;
62543;SDS011;48597;49.030;1.822;2022-10-16T13:52:19;2.60;;;0.95;;
62543;SDS011;48597;49.030;1.822;2022-10-16T13:54:46;3.70;;;0.93;;
62543;SDS011;48597;49.030;1.822;2022-10-16T13:57:13;1.90;;;0.80;;
62543;SDS011;48597;49.030;1.822;2022-10-16T13:59:39;3.75;;;1.20;;
62543;SDS011;48597;49.030;1.822;2022-10-16T14:02:29;2.60;;;0.80;;
62543;SDS011;48597;49.030;1.822;2022-10-16T14:05:03;1.92;;;0.80;;
62543;SDS011;48597;49.030;1.822;2022-10-16T14:07:32;1.75;;;1.00;;
62543;SDS011;48597;49.030;1.822;2022-10-16T14:10:01;1.10;;;0.80;;
62543;SDS011;48597;49.030;1.822;2022-10-16T14:12:29;2.33;;;1.00;;
62543;SDS011;48597;49.030;1.822;2022-10-16T14:14:55;1.30;;;1.00;;
62543;SDS011;48597;49.030;1.822;2022-10-16T14:17:27;1.52;;;0.93;;
62543;SDS011;48597;49.030;1.822;2022-10-16T14:19:58;3.40;;;1.40;;
62543;SDS011;48597;49.030;1.822;2022-10-16T14:24:51;1.77;;;0.90;;
62543;SDS011;48597;49.030;1.822;2022-10-16T14:27:28;1.83;;;0.98;;
62543;SDS011;48597;49.030;1.822;2022-10-16T14:32:41;2.15;;;1.00;;
62543;SDS011;48597;49.030;1.822;2022-10-16T14:35:36;1.85;;;1.15;;
62543;SDS011;48597;49.030;1.822;2022-10-16T14:38:05;1.45;;;0.90;;
62543;SDS011;48597;49.030;1.822;2022-10-16T14:40:45;3.67;;;1.02;;
62543;SDS011;48597;49.030;1.822;2022-10-16T14:43:22;2.60;;;0.98;;
62543;SDS011;48597;49.030;1.822;2022-10-16T14:46:09;3.40;;;0.90;;
62543;SDS011;48597;49.030;1.822;2022-10-16T14:48:42;1.50;;;0.88;;
62543;SDS011;48597;49.030;1.822;2022-10-16T14:51:11;1.23;;;0.70;;
62543;SDS011;48597;49.030;1.822;2022-10-16T14:53:39;1.08;;;0.70;;
62543;SDS011;48597;49.030;1.822;2022-10-16T14:56:08;1.88;;;0.80;;
62543;SDS011;48597;49.030;1.822;2022-10-16T14:58:39;1.15;;;0.80;;
62543;SDS011;48597;49.030;1.822;2022-10-16T15:01:04;1.60;;;1.00;;
62543;SDS011;48597;49.030;1.822;2022-10-16T15:03:31;1.55;;;0.90;;
62543;SDS011;48597;49.030;1.822;2022-10-16T15:05:57;0.77;;;0.68;;
62543;SDS011;48597;49.030;1.822;2022-10-16T15:08:22;1.30;;;0.82;;
62543;SDS011;48597;49.030;1.822;2022-10-16T15:10:47;1.70;;;0.80;;
62543;SDS011;48597;49.030;1.822;2022-10-16T15:13:13;1.33;;;0.82;;
62543;SDS011;48597;49.030;1.822;2022-10-16T15:15:42;1.83;;;0.80;;
62543;SDS011;48597;49.030;1.822;2022-10-16T15:18:09;2.22;;;0.93;;
62543;SDS011;48597;49.030;1.822;2022-10-16T15:20:35;1.23;;;1.00;;
62543;SDS011;48597;49.030;1.822;2022-10-16T15:23:02;2.00;;;0.93;;
62543;SDS011;48597;49.030;1.822;2022-10-16T15:27:54;0.97;;;0.70;;
62543;SDS011;48597;49.030;1.822;2022-10-16T15:30:19;1.73;;;0.93;;
62543;SDS011;48597;49.030;1.822;2022-10-16T15:32:45;1.77;;;0.80;;
62543;SDS011;48597;49.030;1.822;2022-10-16T15:35:10;1.23;;;1.10;;
62543;SDS011;48597;49.030;1.822;2022-10-16T15:37:36;0.90;;;0.90;;
62543;SDS011;48597;49.030;1.822;2022-10-16T15:40:01;1.23;;;0.90;;
62543;SDS011;48597;49.030;1.822;2022-10-16T15:42:27;1.20;;;0.93;;
62543;SDS011;48597;49.030;1.822;2022-10-16T15:44:53;2.50;;;0.85;;
62543;SDS011;48597;49.030;1.822;2022-10-16T15:47:18;1.80;;;0.90;;
62543;SDS011;48597;49.030;1.822;2022-10-16T15:49:43;2.28;;;0.90;;
62543;SDS011;48597;49.030;1.822;2022-10-16T15:52:10;1.23;;;0.98;;
62543;SDS011;48597;49.030;1.822;2022-10-16T15:54:36;0.80;;;0.80;;
62543;SDS011;48597;49.030;1.822;2022-10-16T15:57:01;0.80;;;0.80;;
62543;SDS011;48597;49.030;1.822;2022-10-16T15:59:26;1.63;;;0.80;;
62543;SDS011;48597;49.030;1.822;2022-10-16T16:01:52;1.88;;;1.00;;
62543;SDS011;48597;49.030;1.822;2022-10-16T16:04:17;1.35;;;1.00;;
62543;SDS011;48597;49.030;1.822;2022-10-16T16:06:43;1.05;;;0.88;;
62543;SDS011;48597;49.030;1.822;2022-10-16T16:09:10;1.15;;;0.80;;
62543;SDS011;48597;49.030;1.822;2022-10-16T16:11:36;0.93;;;0.82;;
62543;SDS011;48597;49.030;1.822;2022-10-16T16:14:03;1.30;;;0.80;;
62543;SDS011;48597;49.030;1.822;2022-10-16T16:16:32;1.05;;;0.93;;
62543;SDS011;48597;49.030;1.822;2022-10-16T16:19:03;1.60;;;1.13;;
62543;SDS011;48597;49.030;1.822;2022-10-16T16:21:29;2.92;;;1.73;;
62543;SDS011;48597;49.030;1.822;2022-10-16T16:23:55;3.25;;;2.42;;
62543;SDS011;48597;49.030;1.822;2022-10-16T16:26:24;3.65;;;2.10;;
62543;SDS011;48597;49.030;1.822;2022-10-16T16:28:58;3.70;;;2.20;;
62543;SDS011;48597;49.030;1.822;2022-10-16T16:31:24;4.68;;;2.53;;
62543;SDS011;48597;49.030;1.822;2022-10-16T16:33:51;4.70;;;2.42;;
62543;SDS011;48597;49.030;1.822;2022-10-16T16:36:17;3.28;;;2.20;;
62543;SDS011;48597;49.030;1.822;2022-10-16T16:38:43;3.88;;;2.20;;
62543;SDS011;48597;49.030;1.822;2022-10-16T16:41:16;2.92;;;1.92;;
62543;SDS011;48597;49.030;1.822;2022-10-16T16:43:46;5.22;;;2.20;;
62543;SDS011;48597;49.030;1.822;2022-10-16T16:46:12;2.75;;;2.28;;
62543;SDS011;48597;49.030;1.822;2022-10-16T16:48:38;2.85;;;2.10;;
62543;SDS011;48597;49.030;1.822;2022-10-16T16:51:08;3.35;;;2.15;;
62543;SDS011;48597;49.030;1.822;2022-10-16T16:53:40;2.88;;;2.10;;
62543;SDS011;48597;49.030;1.822;2022-10-16T16:56:05;2.97;;;2.10;;
62543;SDS011;48597;49.030;1.822;2022-10-16T16:58:31;3.42;;;2.00;;
62543;SDS011;48597;49.030;1.822;2022-10-16T17:00:57;3.72;;;2.00;;
62543;SDS011;48597;49.030;1.822;2022-10-16T17:03:34;2.30;;;1.70;;
62543;SDS011;48597;49.030;1.822;2022-10-16T17:06:09;3.33;;;2.15;;
62543;SDS011;48597;49.030;1.822;2022-10-16T17:08:36;2.65;;;1.75;;
62543;SDS011;48597;49.030;1.822;2022-10-16T17:11:03;3.03;;;1.92;;
62543;SDS011;48597;49.030;1.822;2022-10-16T17:13:30;2.78;;;1.83;;
62543;SDS011;48597;49.030;1.822;2022-10-16T17:15:59;4.03;;;1.83;;
62543;SDS011;48597;49.030;1.822;2022-10-16T17:18:25;2.42;;;1.83;;